sensor_id;sensor_type;location;lat;lon;timestamp;temperature;humidity
1415;DHT22;702;49.466;11.086;2023-04-10T00:00:31;4.40;91.20
1415;DHT22;702;49.466;11.086;2023-04-10T00:02:59;4.50;91.20
1415;DHT22;702;49.466;11.086;2023-04-10T00:05:27;4.50;90.90
1415;DHT22;702;49.466;11.086;2023-04-10T00:07:55;4.50;90.70
1415;DHT22;702;49.466;11.086;2023-04-10T00:10:22;4.50;90.80
1415;DHT22;702;49.466;11.086;2023-04-10T00:12:51;4.50;91.00
1415;DHT22;702;49.466;11.086;2023-04-10T00:15:18;4.40;91.10
1415;DHT22;702;49.466;11.086;2023-04-10T00:17:45;4.40;91.40
1415;DHT22;702;49.466;11.086;2023-04-10T00:20:16;4.40;91.30
1415;DHT22;702;49.466;11.086;2023-04-10T00:22:43;4.30;91.30
1415;DHT22;702;49.466;11.086;2023-04-10T00:25:10;4.20;91.60
1415;DHT22;702;49.466;11.086;2023-04-10T00:27:38;4.20;92.20
1415;DHT22;702;49.466;11.086;2023-04-10T00:30:06;4.10;92.20
1415;DHT22;702;49.466;11.086;2023-04-10T00:32:34;4.10;92.60
1415;DHT22;702;49.466;11.086;2023-04-10T00:35:01;4.10;93.00
1415;DHT22;702;49.466;11.086;2023-04-10T00:37:30;4.00;93.00
1415;DHT22;702;49.466;11.086;2023-04-10T00:39:57;3.90;94.30
1415;DHT22;702;49.466;11.086;2023-04-10T00:42:25;4.10;93.80
1415;DHT22;702;49.466;11.086;2023-04-10T00:44:52;4.10;93.20
1415;DHT22;702;49.466;11.086;2023-04-10T00:47:20;4.20;92.90
1415;DHT22;702;49.466;11.086;2023-04-10T00:49:47;4.20;92.30
1415;DHT22;702;49.466;11.086;2023-04-10T00:52:15;4.20;92.90
1415;DHT22;702;49.466;11.086;2023-04-10T00:54:43;4.10;92.60
1415;DHT22;702;49.466;11.086;2023-04-10T00:57:11;4.10;92.90
1415;DHT22;702;49.466;11.086;2023-04-10T00:59:38;4.10;92.90
1415;DHT22;702;49.466;11.086;2023-04-10T01:02:06;4.00;93.60
1415;DHT22;702;49.466;11.086;2023-04-10T01:04:33;3.90;93.40
1415;DHT22;702;49.466;11.086;2023-04-10T01:07:06;3.80;94.00
1415;DHT22;702;49.466;11.086;2023-04-10T01:09:46;3.70;95.30
1415;DHT22;702;49.466;11.086;2023-04-10T01:12:24;3.80;95.10
1415;DHT22;702;49.466;11.086;2023-04-10T01:15:03;3.80;94.90
1415;DHT22;702;49.466;11.086;2023-04-10T01:17:40;3.90;94.00
1415;DHT22;702;49.466;11.086;2023-04-10T01:20:12;4.00;93.50
1415;DHT22;702;49.466;11.086;2023-04-10T01:22:51;4.00;93.00
1415;DHT22;702;49.466;11.086;2023-04-10T01:25:47;4.10;93.10
1415;DHT22;702;49.466;11.086;2023-04-10T01:28:37;4.10;93.00
1415;DHT22;702;49.466;11.086;2023-04-10T01:31:30;4.10;93.10
1415;DHT22;702;49.466;11.086;2023-04-10T01:34:05;4.00;93.20
1415;DHT22;702;49.466;11.086;2023-04-10T01:36:37;4.00;93.30
1415;DHT22;702;49.466;11.086;2023-04-10T01:39:09;4.00;93.30
1415;DHT22;702;49.466;11.086;2023-04-10T01:41:38;4.00;93.50
1415;DHT22;702;49.466;11.086;2023-04-10T01:44:10;3.90;93.80
1415;DHT22;702;49.466;11.086;2023-04-10T01:46:41;3.90;93.80
1415;DHT22;702;49.466;11.086;2023-04-10T01:49:09;3.90;93.80
1415;DHT22;702;49.466;11.086;2023-04-10T01:51:38;3.80;94.00
1415;DHT22;702;49.466;11.086;2023-04-10T01:54:06;3.70;93.80
1415;DHT22;702;49.466;11.086;2023-04-10T01:56:33;3.70;94.70
1415;DHT22;702;49.466;11.086;2023-04-10T01:59:01;3.70;94.60
1415;DHT22;702;49.466;11.086;2023-04-10T02:01:31;3.70;94.30
1415;DHT22;702;49.466;11.086;2023-04-10T02:03:58;3.70;94.60
1415;DHT22;702;49.466;11.086;2023-04-10T02:06:32;3.60;95.20
1415;DHT22;702;49.466;11.086;2023-04-10T02:09:13;3.60;95.50
1415;DHT22;702;49.466;11.086;2023-04-10T02:11:53;3.60;95.50
1415;DHT22;702;49.466;11.086;2023-04-10T02:14:21;3.60;95.40
1415;DHT22;702;49.466;11.086;2023-04-10T02:16:55;3.50;95.60
1415;DHT22;702;49.466;11.086;2023-04-10T02:19:24;3.40;95.30
1415;DHT22;702;49.466;11.086;2023-04-10T02:21:53;3.40;96.70
1415;DHT22;702;49.466;11.086;2023-04-10T02:24:21;3.20;96.60
1415;DHT22;702;49.466;11.086;2023-04-10T02:26:50;3.10;97.60
1415;DHT22;702;49.466;11.086;2023-04-10T02:29:19;3.00;99.00
1415;DHT22;702;49.466;11.086;2023-04-10T02:31:46;3.00;99.90
1415;DHT22;702;49.466;11.086;2023-04-10T02:34:14;3.10;99.90
1415;DHT22;702;49.466;11.086;2023-04-10T02:36:42;3.10;99.90
1415;DHT22;702;49.466;11.086;2023-04-10T02:39:09;3.00;99.90
1415;DHT22;702;49.466;11.086;2023-04-10T02:41:36;2.90;99.90
1415;DHT22;702;49.466;11.086;2023-04-10T02:44:03;2.90;99.90
1415;DHT22;702;49.466;11.086;2023-04-10T02:46:31;2.90;99.90
1415;DHT22;702;49.466;11.086;2023-04-10T02:48:59;2.90;99.90
1415;DHT22;702;49.466;11.086;2023-04-10T02:51:27;2.80;99.90
1415;DHT22;702;49.466;11.086;2023-04-10T02:53:55;2.70;99.90
1415;DHT22;702;49.466;11.086;2023-04-10T02:56:23;2.70;99.90
1415;DHT22;702;49.466;11.086;2023-04-10T02:58:50;2.80;99.90
1415;DHT22;702;49.466;11.086;2023-04-10T03:01:17;3.00;99.90
1415;DHT22;702;49.466;11.086;2023-04-10T03:03:45;3.10;99.90
1415;DHT22;702;49.466;11.086;2023-04-10T03:06:12;3.10;99.30
1415;DHT22;702;49.466;11.086;2023-04-10T03:08:41;3.10;98.60
1415;DHT22;702;49.466;11.086;2023-04-10T03:11:08;3.00;99.40
1415;DHT22;702;49.466;11.086;2023-04-10T03:13:35;3.00;99.20
1415;DHT22;702;49.466;11.086;2023-04-10T03:16:03;2.80;98.70
1415;DHT22;702;49.466;11.086;2023-04-10T03:18:30;2.70;99.90
1415;DHT22;702;49.466;11.086;2023-04-10T03:20:58;2.80;99.90
1415;DHT22;702;49.466;11.086;2023-04-10T03:23:27;2.90;99.90
1415;DHT22;702;49.466;11.086;2023-04-10T03:25:55;3.00;99.90
1415;DHT22;702;49.466;11.086;2023-04-10T03:28:22;3.00;99.90
1415;DHT22;702;49.466;11.086;2023-04-10T03:30:50;3.00;99.90
1415;DHT22;702;49.466;11.086;2023-04-10T03:33:17;3.00;99.90
1415;DHT22;702;49.466;11.086;2023-04-10T03:35:45;3.00;99.90
1415;DHT22;702;49.466;11.086;2023-04-10T03:38:12;2.90;99.90
1415;DHT22;702;49.466;11.086;2023-04-10T03:40:39;2.90;99.90
1415;DHT22;702;49.466;11.086;2023-04-10T03:43:08;2.90;99.90
1415;DHT22;702;49.466;11.086;2023-04-10T03:45:35;2.80;99.90
1415;DHT22;702;49.466;11.086;2023-04-10T03:48:02;2.80;99.90
1415;DHT22;702;49.466;11.086;2023-04-10T03:50:29;2.70;99.90
1415;DHT22;702;49.466;11.086;2023-04-10T03:52:57;2.70;99.90
1415;DHT22;702;49.466;11.086;2023-04-10T03:55:24;2.60;99.90
1415;DHT22;702;49.466;11.086;2023-04-10T03:57:51;2.60;99.90
1415;DHT22;702;49.466;11.086;2023-04-10T04:00:20;2.60;99.90
1415;DHT22;702;49.466;11.086;2023-04-10T04:02:48;2.60;99.90
1415;DHT22;702;49.466;11.086;2023-04-10T04:05:16;2.50;99.90
1415;DHT22;702;49.466;11.086;2023-04-10T04:07:44;2.50;99.90
1415;DHT22;702;49.466;11.086;2023-04-10T04:10:11;2.50;99.90
1415;DHT22;702;49.466;11.086;2023-04-10T04:12:38;2.50;99.90
1415;DHT22;702;49.466;11.086;2023-04-10T04:15:06;2.50;99.90
1415;DHT22;702;49.466;11.086;2023-04-10T04:17:36;2.50;99.90
1415;DHT22;702;49.466;11.086;2023-04-10T04:20:04;2.40;99.90
1415;DHT22;702;49.466;11.086;2023-04-10T04:22:32;2.40;99.90
1415;DHT22;702;49.466;11.086;2023-04-10T04:24:59;2.30;99.90
1415;DHT22;702;49.466;11.086;2023-04-10T04:27:26;2.40;99.90
1415;DHT22;702;49.466;11.086;2023-04-10T04:29:54;2.30;99.90
1415;DHT22;702;49.466;11.086;2023-04-10T04:32:21;2.30;99.90
1415;DHT22;702;49.466;11.086;2023-04-10T04:34:50;2.30;99.90
1415;DHT22;702;49.466;11.086;2023-04-10T04:37:17;2.20;99.90
1415;DHT22;702;49.466;11.086;2023-04-10T04:39:44;2.20;99.90
1415;DHT22;702;49.466;11.086;2023-04-10T04:42:11;2.30;99.90
1415;DHT22;702;49.466;11.086;2023-04-10T04:44:38;2.20;99.90
1415;DHT22;702;49.466;11.086;2023-04-10T04:47:06;2.20;99.90
1415;DHT22;702;49.466;11.086;2023-04-10T04:49:33;2.30;99.90
1415;DHT22;702;49.466;11.086;2023-04-10T04:52:01;2.30;99.90
1415;DHT22;702;49.466;11.086;2023-04-10T04:54:29;2.40;99.90
1415;DHT22;702;49.466;11.086;2023-04-10T04:56:56;2.60;99.90
1415;DHT22;702;49.466;11.086;2023-04-10T04:59:23;2.90;99.90
1415;DHT22;702;49.466;11.086;2023-04-10T05:01:50;3.20;98.10
1415;DHT22;702;49.466;11.086;2023-04-10T05:04:17;3.50;96.20
1415;DHT22;702;49.466;11.086;2023-04-10T05:06:45;3.80;94.50
1415;DHT22;702;49.466;11.086;2023-04-10T05:09:14;4.10;92.20
1415;DHT22;702;49.466;11.086;2023-04-10T05:11:41;4.30;90.20
1415;DHT22;702;49.466;11.086;2023-04-10T05:14:09;4.60;90.20
1415;DHT22;702;49.466;11.086;2023-04-10T05:16:35;4.80;88.20
1415;DHT22;702;49.466;11.086;2023-04-10T05:19:03;5.10;86.60
1415;DHT22;702;49.466;11.086;2023-04-10T05:21:30;5.70;83.80
1415;DHT22;702;49.466;11.086;2023-04-10T05:23:58;5.90;82.50
1415;DHT22;702;49.466;11.086;2023-04-10T05:26:26;6.30;81.70
1415;DHT22;702;49.466;11.086;2023-04-10T05:28:53;6.60;80.10
1415;DHT22;702;49.466;11.086;2023-04-10T05:31:20;6.80;79.20
1415;DHT22;702;49.466;11.086;2023-04-10T05:33:47;6.90;78.50
1415;DHT22;702;49.466;11.086;2023-04-10T05:36:15;7.00;78.20
1415;DHT22;702;49.466;11.086;2023-04-10T05:38:43;6.60;77.70
1415;DHT22;702;49.466;11.086;2023-04-10T05:41:10;5.80;79.10
1415;DHT22;702;49.466;11.086;2023-04-10T05:43:38;5.00;82.00
1415;DHT22;702;49.466;11.086;2023-04-10T05:46:06;4.50;85.40
1415;DHT22;702;49.466;11.086;2023-04-10T05:48:33;4.30;88.50
1415;DHT22;702;49.466;11.086;2023-04-10T05:51:00;4.10;90.40
1415;DHT22;702;49.466;11.086;2023-04-10T05:53:29;4.20;90.50
1415;DHT22;702;49.466;11.086;2023-04-10T05:55:57;4.30;90.50
1415;DHT22;702;49.466;11.086;2023-04-10T05:58:25;4.30;90.50
1415;DHT22;702;49.466;11.086;2023-04-10T06:00:54;4.40;90.30
1415;DHT22;702;49.466;11.086;2023-04-10T06:03:22;4.40;90.60
1415;DHT22;702;49.466;11.086;2023-04-10T06:05:49;4.50;90.20
1415;DHT22;702;49.466;11.086;2023-04-10T06:08:16;4.60;90.20
1415;DHT22;702;49.466;11.086;2023-04-10T06:10:44;4.70;89.50
1415;DHT22;702;49.466;11.086;2023-04-10T06:13:12;4.90;89.50
1415;DHT22;702;49.466;11.086;2023-04-10T06:15:40;5.20;88.00
1415;DHT22;702;49.466;11.086;2023-04-10T06:18:08;5.40;86.70
1415;DHT22;702;49.466;11.086;2023-04-10T06:20:35;5.50;85.80
1415;DHT22;702;49.466;11.086;2023-04-10T06:23:02;5.60;85.20
1415;DHT22;702;49.466;11.086;2023-04-10T06:25:30;5.80;85.30
1415;DHT22;702;49.466;11.086;2023-04-10T06:27:57;6.00;83.40
1415;DHT22;702;49.466;11.086;2023-04-10T06:30:24;6.00;83.00
1415;DHT22;702;49.466;11.086;2023-04-10T06:32:52;6.10;82.80
1415;DHT22;702;49.466;11.086;2023-04-10T06:35:20;6.10;83.10
1415;DHT22;702;49.466;11.086;2023-04-10T06:37:47;6.20;83.10
1415;DHT22;702;49.466;11.086;2023-04-10T06:40:15;6.30;82.70
1415;DHT22;702;49.466;11.086;2023-04-10T06:42:42;6.40;82.30
1415;DHT22;702;49.466;11.086;2023-04-10T06:45:10;6.60;82.60
1415;DHT22;702;49.466;11.086;2023-04-10T06:47:37;6.80;82.50
1415;DHT22;702;49.466;11.086;2023-04-10T06:50:04;7.00;82.00
1415;DHT22;702;49.466;11.086;2023-04-10T06:52:34;7.10;81.20
1415;DHT22;702;49.466;11.086;2023-04-10T06:55:01;7.10;81.10
1415;DHT22;702;49.466;11.086;2023-04-10T06:57:28;7.10;81.10
1415;DHT22;702;49.466;11.086;2023-04-10T06:59:55;7.30;81.00
1415;DHT22;702;49.466;11.086;2023-04-10T07:02:22;7.60;80.20
1415;DHT22;702;49.466;11.086;2023-04-10T07:04:49;7.50;80.00
1415;DHT22;702;49.466;11.086;2023-04-10T07:07:18;7.60;80.30
1415;DHT22;702;49.466;11.086;2023-04-10T07:09:47;7.90;80.70
1415;DHT22;702;49.466;11.086;2023-04-10T07:12:14;8.00;79.50
1415;DHT22;702;49.466;11.086;2023-04-10T07:14:41;8.20;79.40
1415;DHT22;702;49.466;11.086;2023-04-10T07:17:09;8.30;79.00
1415;DHT22;702;49.466;11.086;2023-04-10T07:19:36;8.40;78.20
1415;DHT22;702;49.466;11.086;2023-04-10T07:22:03;8.40;78.10
1415;DHT22;702;49.466;11.086;2023-04-10T07:24:30;8.50;77.90
1415;DHT22;702;49.466;11.086;2023-04-10T07:26:59;8.70;77.50
1415;DHT22;702;49.466;11.086;2023-04-10T07:29:26;8.90;77.40
1415;DHT22;702;49.466;11.086;2023-04-10T07:31:53;9.10;76.80
1415;DHT22;702;49.466;11.086;2023-04-10T07:34:21;9.20;76.10
1415;DHT22;702;49.466;11.086;2023-04-10T07:36:48;9.40;76.00
1415;DHT22;702;49.466;11.086;2023-04-10T07:39:15;9.40;75.50
1415;DHT22;702;49.466;11.086;2023-04-10T07:41:43;9.40;75.60
1415;DHT22;702;49.466;11.086;2023-04-10T07:44:11;9.50;74.70
1415;DHT22;702;49.466;11.086;2023-04-10T07:46:39;9.40;74.10
1415;DHT22;702;49.466;11.086;2023-04-10T07:49:06;9.40;74.10
1415;DHT22;702;49.466;11.086;2023-04-10T07:51:34;9.60;74.10
1415;DHT22;702;49.466;11.086;2023-04-10T07:54:02;9.80;74.00
1415;DHT22;702;49.466;11.086;2023-04-10T07:56:29;10.00;72.10
1415;DHT22;702;49.466;11.086;2023-04-10T07:58:58;10.00;72.00
1415;DHT22;702;49.466;11.086;2023-04-10T08:01:27;10.10;71.60
1415;DHT22;702;49.466;11.086;2023-04-10T08:03:54;10.10;71.20
1415;DHT22;702;49.466;11.086;2023-04-10T08:06:22;10.20;70.60
1415;DHT22;702;49.466;11.086;2023-04-10T08:08:49;10.30;70.50
1415;DHT22;702;49.466;11.086;2023-04-10T08:11:24;10.50;70.10
1415;DHT22;702;49.466;11.086;2023-04-10T08:13:52;10.70;69.40
1415;DHT22;702;49.466;11.086;2023-04-10T08:16:22;10.70;69.30
1415;DHT22;702;49.466;11.086;2023-04-10T08:18:52;10.80;68.30
1415;DHT22;702;49.466;11.086;2023-04-10T08:21:21;11.00;67.90
1415;DHT22;702;49.466;11.086;2023-04-10T08:23:49;11.20;66.70
1415;DHT22;702;49.466;11.086;2023-04-10T08:26:16;11.10;66.00
1415;DHT22;702;49.466;11.086;2023-04-10T08:28:45;11.20;65.80
1415;DHT22;702;49.466;11.086;2023-04-10T08:31:14;11.30;65.40
1415;DHT22;702;49.466;11.086;2023-04-10T08:33:41;11.30;64.50
1415;DHT22;702;49.466;11.086;2023-04-10T08:36:11;11.20;64.00
1415;DHT22;702;49.466;11.086;2023-04-10T08:38:40;11.10;63.80
1415;DHT22;702;49.466;11.086;2023-04-10T08:41:09;11.10;63.60
1415;DHT22;702;49.466;11.086;2023-04-10T08:43:36;11.20;63.50
1415;DHT22;702;49.466;11.086;2023-04-10T08:46:05;11.20;63.10
1415;DHT22;702;49.466;11.086;2023-04-10T08:48:37;11.30;62.80
1415;DHT22;702;49.466;11.086;2023-04-10T08:51:11;11.40;62.90
1415;DHT22;702;49.466;11.086;2023-04-10T08:53:43;11.50;62.20
1415;DHT22;702;49.466;11.086;2023-04-10T08:56:12;11.50;61.60
1415;DHT22;702;49.466;11.086;2023-04-10T08:58:41;11.50;61.30
1415;DHT22;702;49.466;11.086;2023-04-10T09:01:09;11.60;61.00
1415;DHT22;702;49.466;11.086;2023-04-10T09:03:38;11.70;61.10
1415;DHT22;702;49.466;11.086;2023-04-10T09:06:06;11.70;60.50
1415;DHT22;702;49.466;11.086;2023-04-10T09:08:34;11.60;60.70
1415;DHT22;702;49.466;11.086;2023-04-10T09:11:02;11.70;60.60
1415;DHT22;702;49.466;11.086;2023-04-10T09:13:36;11.70;60.40
1415;DHT22;702;49.466;11.086;2023-04-10T09:16:05;11.80;60.60
1415;DHT22;702;49.466;11.086;2023-04-10T09:18:42;12.10;60.40
1415;DHT22;702;49.466;11.086;2023-04-10T09:21:14;12.30;60.00
1415;DHT22;702;49.466;11.086;2023-04-10T09:23:45;12.50;59.30
1415;DHT22;702;49.466;11.086;2023-04-10T09:26:26;12.60;58.90
1415;DHT22;702;49.466;11.086;2023-04-10T09:28:58;12.60;58.70
1415;DHT22;702;49.466;11.086;2023-04-10T09:31:28;12.70;58.40
1415;DHT22;702;49.466;11.086;2023-04-10T09:34:13;12.50;58.60
1415;DHT22;702;49.466;11.086;2023-04-10T09:36:43;12.40;58.70
1415;DHT22;702;49.466;11.086;2023-04-10T09:39:12;12.60;58.20
1415;DHT22;702;49.466;11.086;2023-04-10T09:41:49;12.70;57.70
1415;DHT22;702;49.466;11.086;2023-04-10T09:44:27;12.70;57.30
1415;DHT22;702;49.466;11.086;2023-04-10T09:46:55;12.60;57.00
1415;DHT22;702;49.466;11.086;2023-04-10T09:49:22;12.40;56.90
1415;DHT22;702;49.466;11.086;2023-04-10T09:51:50;12.40;56.90
1415;DHT22;702;49.466;11.086;2023-04-10T09:54:18;12.70;57.20
1415;DHT22;702;49.466;11.086;2023-04-10T09:57:02;12.90;56.60
1415;DHT22;702;49.466;11.086;2023-04-10T09:59:30;13.00;56.10
1415;DHT22;702;49.466;11.086;2023-04-10T10:01:57;13.10;55.60
1415;DHT22;702;49.466;11.086;2023-04-10T10:04:25;13.20;55.20
1415;DHT22;702;49.466;11.086;2023-04-10T10:06:53;13.00;55.00
1415;DHT22;702;49.466;11.086;2023-04-10T10:09:22;13.20;54.80
1415;DHT22;702;49.466;11.086;2023-04-10T10:11:51;13.30;54.50
1415;DHT22;702;49.466;11.086;2023-04-10T10:14:19;13.40;54.70
1415;DHT22;702;49.466;11.086;2023-04-10T10:16:49;13.40;54.30
1415;DHT22;702;49.466;11.086;2023-04-10T10:19:22;13.60;54.20
1415;DHT22;702;49.466;11.086;2023-04-10T10:21:52;13.20;53.50
1415;DHT22;702;49.466;11.086;2023-04-10T10:24:22;13.10;53.60
1415;DHT22;702;49.466;11.086;2023-04-10T10:26:53;13.30;53.80
1415;DHT22;702;49.466;11.086;2023-04-10T10:29:23;13.50;53.20
1415;DHT22;702;49.466;11.086;2023-04-10T10:31:51;13.60;52.80
1415;DHT22;702;49.466;11.086;2023-04-10T10:34:19;13.60;52.20
1415;DHT22;702;49.466;11.086;2023-04-10T10:36:46;13.70;52.10
1415;DHT22;702;49.466;11.086;2023-04-10T10:39:26;13.70;51.90
1415;DHT22;702;49.466;11.086;2023-04-10T10:42:01;13.60;52.20
1415;DHT22;702;49.466;11.086;2023-04-10T10:44:43;13.70;52.10
1415;DHT22;702;49.466;11.086;2023-04-10T10:47:17;13.60;52.00
1415;DHT22;702;49.466;11.086;2023-04-10T10:49:56;13.70;50.70
1415;DHT22;702;49.466;11.086;2023-04-10T10:52:40;13.70;50.40
1415;DHT22;702;49.466;11.086;2023-04-10T10:55:32;13.80;50.50
1415;DHT22;702;49.466;11.086;2023-04-10T10:58:04;13.90;50.30
1415;DHT22;702;49.466;11.086;2023-04-10T11:01:05;14.10;49.70
1415;DHT22;702;49.466;11.086;2023-04-10T11:03:35;14.10;49.20
1415;DHT22;702;49.466;11.086;2023-04-10T11:06:05;14.20;48.80
1415;DHT22;702;49.466;11.086;2023-04-10T11:08:37;14.20;49.30
1415;DHT22;702;49.466;11.086;2023-04-10T11:11:10;14.20;49.20
1415;DHT22;702;49.466;11.086;2023-04-10T11:13:42;14.30;48.80
1415;DHT22;702;49.466;11.086;2023-04-10T11:16:49;14.40;48.40
1415;DHT22;702;49.466;11.086;2023-04-10T11:19:17;14.20;48.90
1415;DHT22;702;49.466;11.086;2023-04-10T11:22:04;14.40;48.60
1415;DHT22;702;49.466;11.086;2023-04-10T11:24:55;14.10;48.20
1415;DHT22;702;49.466;11.086;2023-04-10T11:27:45;14.00;48.80
1415;DHT22;702;49.466;11.086;2023-04-10T11:30:34;14.20;48.70
1415;DHT22;702;49.466;11.086;2023-04-10T11:33:03;14.50;47.90
1415;DHT22;702;49.466;11.086;2023-04-10T11:35:31;14.20;47.70
1415;DHT22;702;49.466;11.086;2023-04-10T11:38:16;14.10;47.70
1415;DHT22;702;49.466;11.086;2023-04-10T11:40:53;14.20;47.20
1415;DHT22;702;49.466;11.086;2023-04-10T11:43:25;14.20;48.20
1415;DHT22;702;49.466;11.086;2023-04-10T11:46:00;14.40;48.60
1415;DHT22;702;49.466;11.086;2023-04-10T11:48:28;14.60;48.40
1415;DHT22;702;49.466;11.086;2023-04-10T11:50:56;14.80;48.50
1415;DHT22;702;49.466;11.086;2023-04-10T11:53:24;15.10;48.10
1415;DHT22;702;49.466;11.086;2023-04-10T11:55:53;15.10;48.20
1415;DHT22;702;49.466;11.086;2023-04-10T11:58:26;15.30;48.30
1415;DHT22;702;49.466;11.086;2023-04-10T12:01:00;15.30;48.40
1415;DHT22;702;49.466;11.086;2023-04-10T12:03:36;15.40;48.30
1415;DHT22;702;49.466;11.086;2023-04-10T12:06:06;15.30;47.20
1415;DHT22;702;49.466;11.086;2023-04-10T12:08:37;15.20;47.20
1415;DHT22;702;49.466;11.086;2023-04-10T12:11:06;15.20;47.00
1415;DHT22;702;49.466;11.086;2023-04-10T12:13:36;15.30;46.40
1415;DHT22;702;49.466;11.086;2023-04-10T12:16:05;15.30;46.40
1415;DHT22;702;49.466;11.086;2023-04-10T12:18:34;15.40;46.80
1415;DHT22;702;49.466;11.086;2023-04-10T12:21:02;15.60;46.80
1415;DHT22;702;49.466;11.086;2023-04-10T12:23:31;15.50;46.20
1415;DHT22;702;49.466;11.086;2023-04-10T12:26:10;15.40;45.80
1415;DHT22;702;49.466;11.086;2023-04-10T12:28:41;15.40;45.30
1415;DHT22;702;49.466;11.086;2023-04-10T12:31:12;15.40;45.50
1415;DHT22;702;49.466;11.086;2023-04-10T12:33:39;15.40;45.20
1415;DHT22;702;49.466;11.086;2023-04-10T12:36:19;15.30;45.10
1415;DHT22;702;49.466;11.086;2023-04-10T12:38:47;15.20;45.40
1415;DHT22;702;49.466;11.086;2023-04-10T12:41:20;15.20;45.20
1415;DHT22;702;49.466;11.086;2023-04-10T12:43:50;15.30;45.30
1415;DHT22;702;49.466;11.086;2023-04-10T12:46:24;15.30;45.10
1415;DHT22;702;49.466;11.086;2023-04-10T12:48:53;14.90;45.00
1415;DHT22;702;49.466;11.086;2023-04-10T12:51:42;15.00;45.50
1415;DHT22;702;49.466;11.086;2023-04-10T12:54:10;15.10;44.60
1415;DHT22;702;49.466;11.086;2023-04-10T12:56:41;15.40;45.10
1415;DHT22;702;49.466;11.086;2023-04-10T12:59:12;15.60;45.50
1415;DHT22;702;49.466;11.086;2023-04-10T13:01:39;15.50;45.40
1415;DHT22;702;49.466;11.086;2023-04-10T13:04:06;15.50;45.60
1415;DHT22;702;49.466;11.086;2023-04-10T13:06:41;15.60;45.30
1415;DHT22;702;49.466;11.086;2023-04-10T13:09:09;15.60;45.00
1415;DHT22;702;49.466;11.086;2023-04-10T13:11:37;15.60;44.80
1415;DHT22;702;49.466;11.086;2023-04-10T13:14:04;15.90;45.20
1415;DHT22;702;49.466;11.086;2023-04-10T13:16:33;16.00;45.10
1415;DHT22;702;49.466;11.086;2023-04-10T13:19:00;16.10;44.80
1415;DHT22;702;49.466;11.086;2023-04-10T13:21:28;16.00;45.00
1415;DHT22;702;49.466;11.086;2023-04-10T13:23:55;16.00;45.20
1415;DHT22;702;49.466;11.086;2023-04-10T13:26:23;16.00;44.90
1415;DHT22;702;49.466;11.086;2023-04-10T13:28:50;15.90;44.90
1415;DHT22;702;49.466;11.086;2023-04-10T13:31:17;15.60;44.80
1415;DHT22;702;49.466;11.086;2023-04-10T13:33:46;15.60;44.30
1415;DHT22;702;49.466;11.086;2023-04-10T13:36:14;15.60;44.60
1415;DHT22;702;49.466;11.086;2023-04-10T13:38:41;15.90;44.30
1415;DHT22;702;49.466;11.086;2023-04-10T13:41:08;15.90;44.60
1415;DHT22;702;49.466;11.086;2023-04-10T13:43:35;15.90;44.60
1415;DHT22;702;49.466;11.086;2023-04-10T13:46:03;15.90;44.10
1415;DHT22;702;49.466;11.086;2023-04-10T13:48:31;15.60;44.30
1415;DHT22;702;49.466;11.086;2023-04-10T13:50:59;15.70;44.50
1415;DHT22;702;49.466;11.086;2023-04-10T13:53:26;16.00;44.30
1415;DHT22;702;49.466;11.086;2023-04-10T13:55:54;16.20;43.80
1415;DHT22;702;49.466;11.086;2023-04-10T13:58:22;16.30;44.10
1415;DHT22;702;49.466;11.086;2023-04-10T14:00:51;16.40;43.90
1415;DHT22;702;49.466;11.086;2023-04-10T14:03:18;16.40;43.10
1415;DHT22;702;49.466;11.086;2023-04-10T14:05:46;16.40;42.80
1415;DHT22;702;49.466;11.086;2023-04-10T14:08:16;16.50;43.00
1415;DHT22;702;49.466;11.086;2023-04-10T14:10:44;16.60;42.90
1415;DHT22;702;49.466;11.086;2023-04-10T14:13:15;16.30;42.80
1415;DHT22;702;49.466;11.086;2023-04-10T14:15:42;16.20;42.40
1415;DHT22;702;49.466;11.086;2023-04-10T14:18:09;16.30;42.60
1415;DHT22;702;49.466;11.086;2023-04-10T14:20:37;16.40;42.90
1415;DHT22;702;49.466;11.086;2023-04-10T14:23:06;16.30;42.80
1415;DHT22;702;49.466;11.086;2023-04-10T14:25:35;16.20;43.00
1415;DHT22;702;49.466;11.086;2023-04-10T14:28:02;16.10;41.90
1415;DHT22;702;49.466;11.086;2023-04-10T14:30:29;16.00;41.90
1415;DHT22;702;49.466;11.086;2023-04-10T14:32:57;15.70;41.10
1415;DHT22;702;49.466;11.086;2023-04-10T14:35:24;15.80;41.00
1415;DHT22;702;49.466;11.086;2023-04-10T14:37:51;15.80;41.20
1415;DHT22;702;49.466;11.086;2023-04-10T14:40:20;16.00;41.20
1415;DHT22;702;49.466;11.086;2023-04-10T14:42:49;16.20;40.80
1415;DHT22;702;49.466;11.086;2023-04-10T14:45:17;16.20;40.60
1415;DHT22;702;49.466;11.086;2023-04-10T14:47:45;16.10;40.80
1415;DHT22;702;49.466;11.086;2023-04-10T14:50:13;16.10;40.80
1415;DHT22;702;49.466;11.086;2023-04-10T14:52:40;16.10;40.70
1415;DHT22;702;49.466;11.086;2023-04-10T14:55:08;16.10;40.60
1415;DHT22;702;49.466;11.086;2023-04-10T14:57:36;16.40;40.70
1415;DHT22;702;49.466;11.086;2023-04-10T15:00:06;16.60;40.80
1415;DHT22;702;49.466;11.086;2023-04-10T15:02:34;16.50;40.40
1415;DHT22;702;49.466;11.086;2023-04-10T15:05:02;16.50;40.60
1415;DHT22;702;49.466;11.086;2023-04-10T15:07:30;16.50;41.00
1415;DHT22;702;49.466;11.086;2023-04-10T15:09:57;16.70;40.90
1415;DHT22;702;49.466;11.086;2023-04-10T15:12:25;17.00;41.30
1415;DHT22;702;49.466;11.086;2023-04-10T15:14:51;16.80;41.00
1415;DHT22;702;49.466;11.086;2023-04-10T15:17:21;16.80;41.00
1415;DHT22;702;49.466;11.086;2023-04-10T15:19:49;16.60;40.30
1415;DHT22;702;49.466;11.086;2023-04-10T15:22:16;16.60;40.60
1415;DHT22;702;49.466;11.086;2023-04-10T15:24:43;16.60;40.50
1415;DHT22;702;49.466;11.086;2023-04-10T15:27:10;16.40;40.80
1415;DHT22;702;49.466;11.086;2023-04-10T15:29:38;16.20;41.10
1415;DHT22;702;49.466;11.086;2023-04-10T15:32:08;16.40;41.00
1415;DHT22;702;49.466;11.086;2023-04-10T15:34:36;16.50;41.10
1415;DHT22;702;49.466;11.086;2023-04-10T15:37:04;16.50;41.40
1415;DHT22;702;49.466;11.086;2023-04-10T15:39:31;16.60;41.50
1415;DHT22;702;49.466;11.086;2023-04-10T15:41:58;16.50;41.40
1415;DHT22;702;49.466;11.086;2023-04-10T15:44:26;16.50;41.40
1415;DHT22;702;49.466;11.086;2023-04-10T15:46:53;16.50;41.60
1415;DHT22;702;49.466;11.086;2023-04-10T15:49:20;16.30;41.40
1415;DHT22;702;49.466;11.086;2023-04-10T15:51:49;16.00;41.40
1415;DHT22;702;49.466;11.086;2023-04-10T15:54:16;16.00;41.60
1415;DHT22;702;49.466;11.086;2023-04-10T15:56:43;16.10;41.70
1415;DHT22;702;49.466;11.086;2023-04-10T15:59:10;16.20;41.90
1415;DHT22;702;49.466;11.086;2023-04-10T16:01:37;16.10;41.90
1415;DHT22;702;49.466;11.086;2023-04-10T16:04:04;16.20;42.00
1415;DHT22;702;49.466;11.086;2023-04-10T16:06:31;16.10;41.90
1415;DHT22;702;49.466;11.086;2023-04-10T16:09:01;16.00;41.80
1415;DHT22;702;49.466;11.086;2023-04-10T16:11:28;15.90;41.70
1415;DHT22;702;49.466;11.086;2023-04-10T16:13:55;15.70;41.40
1415;DHT22;702;49.466;11.086;2023-04-10T16:16:22;15.70;41.40
1415;DHT22;702;49.466;11.086;2023-04-10T16:18:51;15.70;41.50
1415;DHT22;702;49.466;11.086;2023-04-10T16:21:19;15.70;42.00
1415;DHT22;702;49.466;11.086;2023-04-10T16:23:47;15.60;42.10